Weather at Brussels Airport

Public forecast

Using degrees Celsius for public forecast. Weather courtesy of forecast.io.

Current aviation weather report (METAR) for Brussels Airport

Retrieved 2021/05/14 23:20 UTC (10 minutes ago):

EBBR 142320Z 29004KT 7000 SCT006 BKN014 09/08 Q1008 TEMPO 3000 BR BKN005

Aviation forecast (TAF) for Brussels Airport

Retrieved 2021/05/14 18:29 UTC (5 hours ago):

TAF EBBR 141700Z 1418/1524 VRB05KT 9999 FEW030TCU TEMPO 1418/1420 4000 SHRA PROB40 TEMPO 1418/1420 VRB15G25KT 2500 TSRA TEMPO 1500/1506 BKN010 PROB30 TEMPO 1503/1506 3500 BR BKN007 BECMG 1506/1508 19010KT TEMPO 1508/1516 4000 RA SHRA BKN012 TEMPO 1516/1521 4500 SHRA